Time;durP1;ratioP1;P1;durP2;ratioP2;P2;SDS_P1;SDS_P2;PMS_P1;PMS_P2;Temp;Humidity;BMP_temperature;BMP_pressure;BME280_temperature;BME280_humidity;BME280_pressure;Samples;Min_cycle;Max_cycle;Signal;HPM_P1;HPM_P2
2022/07/07 00:00:12;;;;;;;4.00;2.17;;;16.20;68.80;;;15.37;54.83;97943.88;5010447;28;20420;-74
2022/07/07 00:02:38;;;;;;;2.28;1.98;;;16.20;69.10;;;15.37;55.03;97938.56;5017569;28;20403;-75
2022/07/07 00:05:05;;;;;;;4.72;2.13;;;16.20;69.40;;;15.40;54.98;97938.84;4995728;28;20412;-75
2022/07/07 00:07:31;;;;;;;2.28;1.60;;;16.20;69.60;;;15.41;54.84;97936.97;5004294;28;20440;-74
2022/07/07 00:09:58;;;;;;;2.63;1.55;;;16.20;69.40;;;15.43;54.77;97934.81;5013372;28;20412;-74
2022/07/07 00:12:24;;;;;;;3.50;1.88;;;16.30;69.50;;;15.43;55.20;97938.28;5004565;28;20496;-74
2022/07/07 00:14:50;;;;;;;3.10;1.80;;;16.20;69.60;;;15.42;55.68;97939.34;5034697;28;20398;-74
2022/07/07 00:17:17;;;;;;;2.92;1.73;;;16.20;70.00;;;15.37;55.59;97942.03;5034194;28;20967;-76
2022/07/07 00:19:43;;;;;;;4.07;1.80;;;16.20;70.20;;;15.40;55.82;97938.03;5020655;28;20486;-74
2022/07/07 00:22:09;;;;;;;3.40;2.00;;;16.20;70.30;;;15.41;55.83;97939.63;5037467;28;20418;-75
2022/07/07 00:24:35;;;;;;;3.00;1.70;;;16.20;70.40;;;15.44;56.78;97936.41;5030385;28;20404;-74
2022/07/07 00:27:04;;;;;;;4.00;1.93;;;16.30;71.20;;;15.40;57.11;97941.50;5030012;28;20746;-74
2022/07/07 00:29:30;;;;;;;2.15;1.65;;;16.30;71.80;;;15.41;56.97;97944.97;5029159;28;20399;-75
2022/07/07 00:31:58;;;;;;;7.72;2.35;;;16.30;71.80;;;15.44;56.62;97936.41;5029695;28;20415;-75
2022/07/07 00:34:25;;;;;;;4.03;1.80;;;16.30;71.60;;;15.39;56.63;97937.22;5011970;28;20441;-74
2022/07/07 00:36:51;;;;;;;2.95;1.50;;;16.20;71.40;;;15.38;56.48;97932.97;5013412;28;20777;-75
2022/07/07 00:39:17;;;;;;;4.95;2.05;;;16.30;71.40;;;15.38;56.81;97929.50;5031175;28;20425;-75
2022/07/07 00:41:43;;;;;;;3.67;1.80;;;16.20;71.80;;;15.41;57.31;97932.41;5029582;28;20754;-76
2022/07/07 00:44:14;;;;;;;4.45;1.80;;;16.30;72.40;;;15.40;57.65;97933.50;5029847;28;20453;-76
2022/07/07 00:46:45;;;;;;;4.38;1.77;;;16.30;72.70;;;15.42;57.91;97934.00;5029812;28;20403;-76
2022/07/07 00:49:13;;;;;;;3.45;1.80;;;16.20;72.90;;;15.43;57.99;97932.13;5029041;28;20416;-75
2022/07/07 00:51:42;;;;;;;2.92;1.77;;;16.30;73.10;;;15.45;57.82;97932.69;5029510;28;20395;-75
2022/07/07 00:54:09;;;;;;;2.33;1.70;;;16.30;73.10;;;15.49;57.65;97928.41;5029843;28;20541;-75
2022/07/07 00:56:36;;;;;;;3.03;1.73;;;16.30;73.10;;;15.49;57.21;97923.84;5029594;28;20888;-76
2022/07/07 00:59:06;;;;;;;3.63;1.60;;;16.30;72.60;;;15.49;56.18;97915.06;5029032;28;20856;-75
2022/07/07 01:01:35;;;;;;;3.77;1.83;;;16.30;71.50;;;15.55;55.37;97910.56;5029395;28;20399;-75
2022/07/07 01:04:02;;;;;;;3.47;2.10;;;16.40;71.00;;;15.56;55.23;97912.97;5029600;28;20403;-76
2022/07/07 01:06:30;;;;;;;3.05;1.88;;;16.40;70.70;;;15.59;55.45;97912.41;5029500;28;20486;-75
2022/07/07 01:08:57;;;;;;;3.50;1.88;;;16.40;70.60;;;15.65;53.10;97908.66;5029219;28;20401;-75
2022/07/07 01:11:23;;;;;;;3.15;1.60;;;16.40;69.50;;;15.66;53.93;97915.59;5029435;28;20407;-75
2022/07/07 01:13:49;;;;;;;2.13;1.88;;;16.50;69.00;;;15.67;54.62;97900.38;5011851;28;20407;-75
2022/07/07 01:16:15;;;;;;;3.25;1.67;;;16.50;69.80;;;15.67;55.46;97909.19;5029448;28;20441;-75
2022/07/07 01:18:44;;;;;;;3.30;2.00;;;16.50;70.40;;;15.67;55.95;97901.19;5028967;28;20423;-75
2022/07/07 01:21:13;;;;;;;3.38;1.80;;;16.50;70.90;;;15.67;56.16;97905.72;5011454;28;20434;-75
2022/07/07 01:23:40;;;;;;;2.47;1.70;;;16.50;71.40;;;15.68;55.91;97908.13;5031913;28;20395;-75
2022/07/07 01:26:06;;;;;;;2.65;1.65;;;16.50;71.20;;;15.67;56.13;97903.06;5033029;28;20467;-75
2022/07/07 01:28:33;;;;;;;5.05;1.80;;;16.50;71.30;;;15.68;55.70;97902.78;5032601;28;20399;-75
2022/07/07 01:30:59;;;;;;;3.95;1.83;;;16.50;71.10;;;15.67;55.12;97901.19;5032521;28;20411;-75
2022/07/07 01:33:25;;;;;;;3.60;2.03;;;16.50;70.60;;;15.70;54.43;97895.31;5032920;28;20407;-75
2022/07/07 01:35:51;;;;;;;4.45;1.98;;;16.50;69.70;;;15.66;54.74;97899.56;5032941;28;20399;-75
2022/07/07 01:38:17;;;;;;;4.10;1.90;;;16.50;70.10;;;15.65;55.36;97887.31;5032290;28;20467;-75
2022/07/07 01:40:45;;;;;;;3.27;1.80;;;16.50;70.70;;;15.66;55.09;97882.75;5032666;28;20901;-75
2022/07/07 01:43:11;;;;;;;7.23;2.50;;;16.50;70.70;;;15.66;56.09;97880.91;5033229;28;20455;-76
2022/07/07 01:45:36;;;;;;;4.25;1.70;;;16.50;71.20;;;15.65;56.21;97889.16;5032792;28;20403;-75
2022/07/07 01:48:03;;;;;;;3.67;1.98;;;16.50;71.60;;;15.63;57.32;97888.66;5032205;28;20399;-75
2022/07/07 01:50:29;;;;;;;2.88;1.80;;;16.40;72.40;;;15.61;56.08;97877.44;5032267;28;20453;-75
2022/07/07 01:52:55;;;;;;;3.47;1.80;;;16.40;71.70;;;15.58;55.57;97878.78;5032729;28;20403;-75
2022/07/07 01:55:21;;;;;;;4.70;1.85;;;16.40;71.30;;;15.54;55.67;97871.59;5032616;28;20769;-75
2022/07/07 01:57:48;;;;;;;3.67;1.98;;;16.30;71.00;;;15.53;55.21;97873.47;5032591;28;20425;-75
2022/07/07 02:00:16;;;;;;;5.20;2.03;;;16.30;70.80;;;15.57;53.73;97871.84;5031569;28;20447;-75
2022/07/07 02:02:41;;;;;;;4.13;1.83;;;16.40;69.50;;;15.62;54.69;97873.72;5032414;28;20409;-74
2022/07/07 02:05:08;;;;;;;5.27;2.47;;;16.40;69.90;;;15.60;54.55;97876.66;5032322;28;20407;-74
2022/07/07 02:07:35;;;;;;;3.53;2.00;;;16.40;70.20;;;15.63;53.95;97870.78;5032519;28;20480;-74
2022/07/07 02:10:03;;;;;;;3.38;1.98;;;16.40;69.50;;;15.60;54.09;97870.50;5031504;28;20396;-74
2022/07/07 02:12:29;;;;;;;4.53;1.92;;;16.40;69.30;;;15.63;53.88;97877.97;5032255;28;20403;-75
2022/07/07 02:14:57;;;;;;;5.70;2.53;;;16.40;69.20;;;15.61;53.31;97869.44;5016194;28;20750;-75
2022/07/07 02:17:23;;;;;;;5.70;2.40;;;16.40;68.50;;;15.59;53.26;97861.69;5032292;28;20927;-75
2022/07/07 02:19:49;;;;;;;4.13;1.93;;;16.40;68.40;;;15.60;52.74;97867.84;5031505;28;20418;-75
2022/07/07 02:22:15;;;;;;;5.57;2.28;;;16.40;68.90;;;15.60;52.52;97870.50;5031942;28;20429;-74
2022/07/07 02:24:41;;;;;;;5.78;2.25;;;16.40;67.60;;;15.57;52.25;97871.84;5032064;28;20411;-73
2022/07/07 02:27:07;;;;;;;4.53;2.25;;;16.40;67.30;;;15.57;52.02;97873.72;5031922;28;20407;-75
2022/07/07 02:29:33;;;;;;;6.65;2.08;;;16.30;67.00;;;15.56;52.26;97883.59;5031375;28;20392;-75
2022/07/07 02:32:00;;;;;;;6.13;2.20;;;16.40;67.40;;;15.56;51.97;97878.28;5032368;28;20413;-74
2022/07/07 02:34:28;;;;;;;4.47;2.13;;;16.40;67.00;;;15.55;52.06;97876.66;5033051;28;20505;-75
2022/07/07 02:36:54;;;;;;;5.55;2.15;;;16.40;67.20;;;15.55;51.79;97873.19;5034314;28;20414;-75
2022/07/07 02:39:20;;;;;;;5.18;2.13;;;16.30;67.10;;;15.53;52.29;97872.63;5018229;28;20808;-74
2022/07/07 02:41:46;;;;;;;6.38;2.40;;;16.30;67.40;;;15.52;52.29;97871.03;5031681;28;20418;-74
2022/07/07 02:44:12;;;;;;;8.77;2.25;;;16.30;67.30;;;15.53;52.13;97877.97;5031837;28;20403;-75
2022/07/07 02:46:38;;;;;;;4.57;2.30;;;16.30;67.20;;;15.52;52.52;97871.03;5032622;28;20399;-75
2022/07/07 02:49:05;;;;;;;4.70;2.20;;;16.30;67.60;;;15.50;52.17;97868.63;5030956;28;20406;-75
2022/07/07 02:51:31;;;;;;;4.95;2.20;;;16.30;67.50;;;15.48;52.78;97868.13;5013594;28;20893;-75
2022/07/07 02:53:57;;;;;;;7.55;2.20;;;16.30;67.80;;;15.45;53.09;97869.44;5031713;28;20407;-75
2022/07/07 02:56:23;;;;;;;5.72;2.20;;;16.20;68.20;;;15.42;52.98;97869.97;5031389;28;20422;-75
2022/07/07 02:58:49;;;;;;;5.37;2.00;;;16.20;68.10;;;15.41;53.17;97865.72;5013149;28;20415;-75
2022/07/07 03:01:15;;;;;;;6.07;2.15;;;16.20;68.40;;;15.38;53.35;97868.94;5031148;28;20553;-74
2022/07/07 03:03:41;;;;;;;5.10;2.17;;;16.10;68.40;;;15.37;53.66;97864.66;5031311;28;20422;-74
2022/07/07 03:06:08;;;;;;;4.70;2.25;;;16.10;68.70;;;15.38;53.65;97865.47;5031308;28;20414;-75
2022/07/07 03:08:34;;;;;;;4.68;2.00;;;16.10;68.90;;;15.34;53.97;97854.53;5013063;28;20514;-73
2022/07/07 03:11:00;;;;;;;4.55;1.90;;;16.10;69.10;;;15.28;54.19;97858.28;5013220;28;20812;-75
2022/07/07 03:13:26;;;;;;;5.28;1.90;;;16.00;69.20;;;15.31;53.99;97860.41;5031126;28;20465;-75
2022/07/07 03:15:52;;;;;;;7.00;2.28;;;16.00;69.20;;;15.31;54.21;97851.59;5013422;28;20781;-74
2022/07/07 03:18:18;;;;;;;5.47;2.15;;;16.00;69.50;;;15.31;54.03;97854.28;5030511;28;20414;-75
2022/07/07 03:20:44;;;;;;;5.38;2.20;;;16.00;69.50;;;15.28;54.44;97854.81;5030655;28;20400;-74
2022/07/07 03:23:11;;;;;;;5.50;1.92;;;16.00;69.60;;;15.26;54.34;97848.97;5031091;28;20815;-74
2022/07/07 03:25:37;;;;;;;4.70;2.10;;;16.00;69.50;;;15.24;54.64;97845.75;5030959;28;20502;-75
2022/07/07 03:28:04;;;;;;;4.88;2.03;;;16.00;70.00;;;15.27;54.68;97845.19;5030542;28;20877;-75
2022/07/07 03:30:30;;;;;;;5.47;1.85;;;16.00;70.20;;;15.25;54.37;97828.69;5043596;22;20441;-77
2022/07/07 03:32:56;;;;;;;4.63;1.95;;;16.00;69.90;;;15.24;54.81;97829.75;5030960;28;20403;-78
2022/07/07 03:35:22;;;;;;;5.10;1.80;;;16.00;70.20;;;15.24;54.97;97835.88;5030625;28;20461;-77
2022/07/07 03:37:48;;;;;;;15.30;2.20;;;16.00;70.50;;;15.25;55.17;97837.50;5030873;28;20407;-78
2022/07/07 03:40:16;;;;;;;6.32;2.00;;;16.00;70.50;;;15.27;54.87;97837.19;5029494;28;20415;-77
2022/07/07 03:42:42;;;;;;;7.00;1.90;;;16.00;70.40;;;15.29;54.46;97833.19;5013228;28;20545;-77
2022/07/07 03:45:09;;;;;;;3.15;1.70;;;16.00;70.20;;;15.25;54.85;97823.34;5030224;28;20403;-78
2022/07/07 03:47:35;;;;;;;4.63;2.13;;;16.00;70.30;;;15.30;54.69;97829.47;5025403;28;20954;-78
2022/07/07 03:50:01;;;;;;;4.25;1.77;;;16.00;70.30;;;15.31;54.70;97827.59;5036485;28;20823;-78
2022/07/07 03:52:27;;;;;;;4.20;1.63;;;16.10;70.40;;;15.31;54.79;97825.72;5044403;28;20492;-78
2022/07/07 03:54:53;;;;;;;3.53;1.80;;;16.00;70.30;;;15.32;54.79;97822.00;5048224;28;20405;-78
2022/07/07 03:57:20;;;;;;;5.30;1.80;;;16.10;70.60;;;15.35;54.71;97821.44;5050183;28;20406;-75
2022/07/07 03:59:46;;;;;;;3.85;1.80;;;16.10;70.30;;;15.36;54.77;97827.59;5031642;28;20413;-77
2022/07/07 04:02:12;;;;;;;3.00;2.00;;;16.10;70.50;;;15.36;54.49;97822.25;5025865;28;20506;-76
2022/07/07 04:04:38;;;;;;;3.50;1.67;;;16.10;70.40;;;15.37;55.11;97819.31;5030118;28;20410;-75
2022/07/07 04:07:04;;;;;;;5.10;1.90;;;16.10;70.60;;;15.37;55.34;97815.84;5027601;28;20422;-76
2022/07/07 04:09:30;;;;;;;5.30;2.13;;;16.10;70.80;;;15.35;54.83;97824.09;5029297;28;20760;-76
2022/07/07 04:11:56;;;;;;;12.98;2.00;;;16.10;70.20;;;15.32;55.25;97826.53;5029886;28;20407;-77
2022/07/07 04:14:23;;;;;;;5.35;2.22;;;16.10;70.60;;;15.31;55.09;97831.06;5023162;28;20422;-75
2022/07/07 04:16:49;;;;;;;4.68;2.17;;;16.10;70.80;;;15.34;55.19;97827.03;5028226;28;20411;-74
2022/07/07 04:19:15;;;;;;;3.10;1.60;;;16.10;70.90;;;15.32;55.64;97822.00;5029344;28;20425;-75
2022/07/07 04:21:41;;;;;;;6.10;1.95;;;16.10;71.20;;;15.34;55.21;97837.72;5029674;28;20403;-75
2022/07/07 04:24:07;;;;;;;4.75;2.03;;;16.10;71.10;;;15.31;55.35;97838.28;5026272;28;20436;-75
2022/07/07 04:26:33;;;;;;;5.20;2.10;;;16.00;71.20;;;15.30;55.55;97829.47;5020304;28;20970;-77
2022/07/07 04:28:59;;;;;;;3.03;1.80;;;16.00;71.10;;;15.31;55.81;97832.94;5009499;28;20445;-81
2022/07/07 04:31:27;;;;;;;4.35;1.90;;;16.10;71.50;;;15.30;55.77;97824.13;5009667;28;20443;-79
2022/07/07 04:33:52;;;;;;;5.05;2.10;;;16.10;71.40;;;15.31;56.05;97820.41;5021878;28;20549;-78
2022/07/07 04:36:18;;;;;;;5.63;1.90;;;16.10;71.60;;;15.34;55.82;97822.50;5027297;28;20550;-78
2022/07/07 04:38:44;;;;;;;4.03;1.90;;;16.10;71.40;;;15.38;55.17;97826.25;5036028;28;20486;-79
2022/07/07 04:41:10;;;;;;;6.50;2.50;;;16.10;71.00;;;15.37;55.53;97819.31;5026018;28;20894;-79
2022/07/07 04:43:36;;;;;;;4.28;2.08;;;16.10;71.20;;;15.36;55.97;97817.72;5023938;28;20769;-77
2022/07/07 04:46:02;;;;;;;3.75;2.05;;;16.10;71.60;;;15.37;55.96;97815.84;5019654;28;20405;-78
2022/07/07 04:48:29;;;;;;;3.93;1.90;;;16.10;71.80;;;15.41;55.72;97827.59;5020193;28;20464;-77
2022/07/07 04:50:55;;;;;;;4.70;2.20;;;16.10;71.80;;;15.33;55.65;97825.47;5017919;28;20409;-75
2022/07/07 04:53:21;;;;;;;6.10;1.90;;;16.10;71.50;;;15.29;56.16;97830.53;5019365;28;20492;-78
2022/07/07 04:55:47;;;;;;;4.17;1.90;;;16.00;71.90;;;15.28;56.57;97822.78;5019947;28;20412;-79
2022/07/07 04:58:13;;;;;;;6.78;2.22;;;16.00;72.10;;;15.24;55.98;97817.22;5014103;28;20850;-77
2022/07/07 05:00:39;;;;;;;4.68;1.95;;;16.00;72.00;;;15.24;56.66;97821.75;5013460;28;20488;-79
2022/07/07 05:03:05;;;;;;;4.53;1.77;;;16.00;72.50;;;15.22;56.70;97815.88;5013734;28;20401;-76
2022/07/07 05:05:32;;;;;;;7.13;1.90;;;15.90;72.60;;;15.23;56.59;97815.63;5013579;28;20416;-77
2022/07/07 05:07:58;;;;;;;8.63;2.13;;;16.00;72.40;;;15.30;56.28;97818.00;5013731;28;20412;-77
2022/07/07 05:10:25;;;;;;;4.43;1.80;;;16.00;72.30;;;15.33;56.12;97812.94;5011694;28;20412;-77
2022/07/07 05:12:51;;;;;;;6.30;1.98;;;16.10;72.30;;;15.45;56.54;97807.28;5012327;28;20455;-77
2022/07/07 05:15:17;;;;;;;5.30;2.30;;;16.20;72.70;;;15.53;55.45;97813.94;5013364;28;20455;-76
2022/07/07 05:17:43;;;;;;;5.38;2.10;;;16.20;71.40;;;15.55;55.83;97806.50;5013539;28;20504;-77
2022/07/07 05:20:10;;;;;;;6.27;2.00;;;16.30;71.60;;;15.56;55.86;97800.91;5012438;28;20888;-77
2022/07/07 05:22:38;;;;;;;4.30;1.83;;;16.30;71.80;;;15.58;55.66;97817.41;5013361;28;20413;-77
2022/07/07 05:25:05;;;;;;;4.72;2.22;;;16.30;71.70;;;15.50;56.10;97810.72;5013218;28;20401;-77
2022/07/07 05:27:31;;;;;;;5.63;2.23;;;16.30;71.90;;;15.49;56.36;97814.47;5013385;28;20420;-78
2022/07/07 05:29:57;;;;;;;4.35;2.00;;;16.20;72.30;;;15.49;56.90;97811.78;5012580;28;20412;-78
2022/07/07 05:32:23;;;;;;;7.47;2.03;;;16.20;72.70;;;15.47;57.03;97823.81;5012522;28;20415;-78
2022/07/07 05:34:48;;;;;;;4.55;1.77;;;16.20;73.00;;;15.47;57.22;97813.97;5013160;28;20756;-78
2022/07/07 05:37:15;;;;;;;4.72;2.00;;;16.20;73.40;;;15.50;57.50;97817.94;5013560;28;20417;-78
2022/07/07 05:39:42;;;;;;;4.10;1.90;;;16.20;73.70;;;15.62;56.80;97815.81;5030105;28;20793;-78
2022/07/07 05:42:08;;;;;;;3.92;1.73;;;16.30;73.10;;;15.71;56.91;97808.81;5043444;28;20415;-78
2022/07/07 05:44:34;;;;;;;5.50;1.73;;;16.40;73.00;;;15.86;56.06;97800.72;5029999;28;20409;-78
2022/07/07 05:47:00;;;;;;;5.50;2.00;;;16.60;72.70;;;16.07;54.84;97801.44;5023899;28;20410;-78
2022/07/07 05:49:26;;;;;;;3.00;1.70;;;16.80;71.10;;;16.16;55.08;97799.78;5028232;28;20408;-78
2022/07/07 05:51:52;;;;;;;3.80;1.80;;;16.90;71.30;;;16.28;55.32;97799.44;5024072;28;20407;-78
2022/07/07 05:54:18;;;;;;;3.45;1.75;;;17.00;71.40;;;16.39;55.06;97795.63;5027502;28;21030;-78
2022/07/07 05:56:45;;;;;;;5.60;1.87;;;17.10;70.80;;;16.49;53.83;97789.41;5040328;28;20893;-78
2022/07/07 05:59:11;;;;;;;5.53;1.98;;;17.20;69.70;;;16.54;54.84;97790.16;5039952;28;20417;-78
2022/07/07 06:01:37;;;;;;;2.92;1.50;;;17.20;70.60;;;16.60;54.31;97796.28;5046982;28;20424;-78
2022/07/07 06:04:04;;;;;;;3.53;1.80;;;17.30;70.20;;;16.63;55.43;97801.06;5030286;28;20421;-78
2022/07/07 06:06:30;;;;;;;7.25;1.58;;;17.30;71.00;;;16.76;54.55;97805.81;5038475;28;20413;-78
2022/07/07 06:08:56;;;;;;;3.55;1.67;;;17.40;70.90;;;16.97;52.53;97801.88;5034617;28;20417;-77
2022/07/07 06:11:22;;;;;;;3.42;1.40;;;17.50;69.00;;;17.05;53.13;97802.34;5028325;28;20399;-78
2022/07/07 06:13:50;;;;;;;5.03;1.60;;;17.70;69.30;;;17.20;51.68;97802.19;5028309;28;20458;-78
2022/07/07 06:16:16;;;;;;;3.65;1.52;;;17.80;67.40;;;17.29;50.59;97797.81;5025990;28;20415;-79
2022/07/07 06:18:42;;;;;;;2.72;1.48;;;18.00;66.10;;;17.28;52.59;97802.38;5020852;28;20760;-78
2022/07/07 06:21:08;;;;;;;2.60;1.13;;;18.00;67.70;;;17.30;52.49;97810.88;5010443;28;20417;-78
2022/07/07 06:23:34;;;;;;;6.68;1.55;;;18.00;67.80;;;17.35;51.31;97810.84;5012124;28;20411;-81
2022/07/07 06:26:02;;;;;;;5.68;1.67;;;18.00;66.60;;;17.31;51.06;97803.66;5012555;28;20400;-78
2022/07/07 06:28:28;;;;;;;3.43;1.50;;;18.00;66.20;;;17.33;50.70;97807.66;5010390;28;20574;-78
2022/07/07 06:30:56;;;;;;;5.80;1.52;;;18.00;66.10;;;17.41;51.45;97800.88;5011658;28;20917;-78
2022/07/07 06:33:22;;;;;;;2.65;1.40;;;18.10;67.00;;;17.41;52.01;97796.34;5012200;28;20768;-78
2022/07/07 06:35:47;;;;;;;3.37;1.53;;;18.10;67.30;;;17.47;52.53;97788.25;5018228;28;20416;-78
2022/07/07 06:38:13;;;;;;;4.50;1.93;;;18.10;67.90;;;17.55;51.67;97784.94;5033231;28;20437;-77
2022/07/07 06:40:39;;;;;;;4.28;1.40;;;18.20;67.20;;;17.60;51.86;97785.66;5020603;28;20424;-76
2022/07/07 06:43:05;;;;;;;5.03;1.98;;;18.20;67.40;;;17.73;50.18;97782.34;5012365;28;20651;-76
2022/07/07 06:45:31;;;;;;;4.65;1.70;;;18.30;65.50;;;17.69;50.63;97783.19;5014332;28;20404;-77
2022/07/07 06:47:59;;;;;;;5.95;1.65;;;18.30;65.90;;;17.74;51.06;97785.81;5026287;28;20410;-79
2022/07/07 06:50:25;;;;;;;5.68;1.80;;;18.40;66.20;;;17.75;50.27;97790.84;5034666;28;20454;-78
2022/07/07 06:52:51;;;;;;;5.72;1.70;;;18.40;65.50;;;17.73;51.12;97785.00;5028034;28;20426;-78
2022/07/07 06:55:16;;;;;;;2.92;1.63;;;18.40;65.80;;;17.77;51.34;97787.91;5031869;28;20411;-79
2022/07/07 06:57:42;;;;;;;5.97;1.65;;;18.40;66.60;;;17.94;51.58;97790.09;5030050;28;20418;-80
2022/07/07 07:00:10;;;;;;;2.95;1.70;;;18.50;67.00;;;18.02;50.49;97784.91;5030547;28;20465;-79
2022/07/07 07:02:42;;;;;;;4.80;1.98;;;18.70;65.70;;;18.12;50.34;97789.28;5030133;28;20711;-79
2022/07/07 07:05:10;;;;;;;6.07;1.98;;;18.70;65.90;;;18.18;51.02;97794.31;5029389;28;20414;-81
2022/07/07 07:07:35;;;;;;;5.97;1.65;;;18.80;66.30;;;18.38;49.27;97798.56;5011148;28;20419;-80
2022/07/07 07:10:04;;;;;;;10.50;1.80;;;19.00;64.80;;;18.44;49.69;97797.41;5029887;28;20410;-80
2022/07/07 07:12:30;;;;;;;4.18;1.88;;;19.10;65.00;;;18.46;49.37;97795.25;5019792;28;20422;-81
2022/07/07 07:14:56;;;;;;;4.03;1.67;;;19.10;64.40;;;18.48;49.95;97798.44;5028307;28;20788;-81
2022/07/07 07:17:22;;;;;;;7.28;1.70;;;19.10;65.20;;;18.51;51.32;97811.25;5036681;28;20924;-81
2022/07/07 07:19:48;;;;;;;3.67;1.40;;;19.10;66.20;;;18.53;50.80;97805.59;5029028;28;20426;-80
2022/07/07 07:22:15;;;;;;;6.20;1.60;;;19.10;66.00;;;18.52;50.38;97799.44;5029951;28;20474;-81
2022/07/07 07:24:41;;;;;;;4.30;2.00;;;19.20;66.20;;;18.56;50.33;97810.41;5030493;28;20505;-77
2022/07/07 07:27:07;;;;;;;4.00;1.63;;;19.20;65.60;;;18.63;49.29;97805.47;5030287;28;21003;-79
2022/07/07 07:29:33;;;;;;;6.35;1.80;;;19.20;64.60;;;18.69;49.88;97803.50;5029589;28;20411;-80
2022/07/07 07:31:59;;;;;;;5.45;1.80;;;19.30;65.00;;;18.69;49.77;97808.88;5025487;28;20511;-78
2022/07/07 07:34:25;;;;;;;2.80;1.55;;;19.30;65.00;;;18.75;51.35;97802.31;5028937;28;20418;-78
2022/07/07 07:36:51;;;;;;;6.47;1.75;;;19.30;66.40;;;18.82;51.00;97811.59;5029868;28;20497;-81
2022/07/07 07:39:18;;;;;;;4.78;1.50;;;19.40;66.90;;;18.94;50.52;97805.78;5028576;28;20526;-79
2022/07/07 07:41:44;;;;;;;5.97;1.42;;;19.50;65.70;;;19.08;52.22;97803.09;5029451;28;20419;-81
2022/07/07 07:44:10;;;;;;;5.00;1.60;;;19.60;66.90;;;19.20;50.37;97819.53;5023092;28;20427;-76
2022/07/07 07:46:36;;;;;;;5.68;1.60;;;19.80;66.30;;;19.25;49.82;97827.47;5022104;28;20479;-80
2022/07/07 07:49:06;;;;;;;4.93;1.97;;;19.80;65.00;;;19.23;49.98;97829.69;5036378;28;20557;-77
2022/07/07 07:51:32;;;;;;;4.63;1.85;;;19.90;64.90;;;19.17;50.28;97830.88;5029387;28;20407;-76
2022/07/07 07:53:58;;;;;;;6.50;2.13;;;19.80;65.40;;;19.23;50.79;97843.09;5029885;28;20411;-75
2022/07/07 07:56:26;;;;;;;4.70;1.58;;;19.80;66.10;;;19.29;49.77;97849.97;5030189;28;20451;-80
2022/07/07 07:58:52;;;;;;;2.88;1.50;;;19.80;65.00;;;19.25;49.47;97844.38;5022657;28;20789;-80
2022/07/07 08:01:18;;;;;;;3.20;1.60;;;19.80;64.20;;;19.19;49.86;97850.94;5035336;28;20526;-81
2022/07/07 08:03:44;;;;;;;4.53;2.00;;;19.80;64.80;;;19.14;48.56;97848.34;5031454;28;20442;-80
2022/07/07 08:06:10;;;;;;;6.50;2.10;;;19.70;63.10;;;19.12;50.35;97844.34;5030073;28;20421;-79
2022/07/07 08:08:36;;;;;;;4.20;1.80;;;19.70;65.00;;;18.97;49.64;97852.66;5029047;28;20416;-79
2022/07/07 08:11:01;;;;;;;6.60;2.00;;;19.60;64.70;;;18.93;50.83;97839.03;5030148;28;20979;-84
2022/07/07 08:13:29;;;;;;;6.13;1.95;;;19.60;65.80;;;18.85;50.33;97850.44;5029479;28;20900;-81
2022/07/07 08:15:55;;;;;;;4.50;1.92;;;19.50;65.40;;;18.84;50.79;97838.91;5029759;28;20450;-81
2022/07/07 08:18:21;;;;;;;3.13;1.75;;;19.50;65.80;;;18.87;50.58;97832.16;5011659;28;20423;-80
2022/07/07 08:20:47;;;;;;;7.03;1.95;;;19.50;66.40;;;18.79;51.91;97836.31;5028276;28;20422;-80
2022/07/07 08:23:13;;;;;;;3.80;1.80;;;19.40;66.90;;;18.75;51.37;97819.22;5032041;28;20475;-81
2022/07/07 08:25:39;;;;;;;5.75;2.08;;;19.40;66.50;;;18.80;51.97;97819.13;5030005;28;20426;-83
2022/07/07 08:28:05;;;;;;;4.53;1.95;;;19.40;66.90;;;18.85;51.52;97807.53;5028814;28;20429;-82
2022/07/07 08:30:32;;;;;;;4.63;1.90;;;19.40;67.00;;;18.95;50.82;97799.28;5025579;28;20420;-76
2022/07/07 08:32:58;;;;;;;3.70;1.70;;;19.50;66.10;;;19.00;51.45;97807.28;5022859;28;20417;-78
2022/07/07 08:35:24;;;;;;;13.02;2.85;;;19.60;66.60;;;19.01;51.48;97810.75;5035983;28;20473;-79
2022/07/07 08:37:50;;;;;;;7.20;1.88;;;19.60;66.80;;;19.05;51.42;97806.38;5029725;28;20419;-79
2022/07/07 08:40:16;;;;;;;5.85;2.33;;;19.70;66.40;;;19.17;52.01;97812.09;5028163;28;20454;-79
2022/07/07 08:42:42;;;;;;;3.38;1.60;;;19.70;67.60;;;19.26;52.28;97816.44;5034008;28;20436;-85
2022/07/07 08:45:10;;;;;;;6.50;1.95;;;19.80;67.70;;;19.46;52.41;97812.59;5034624;28;20853;-85
2022/07/07 08:47:38;;;;;;;5.97;2.28;;;20.00;68.10;;;19.57;50.83;97818.59;5030481;28;20415;-82
2022/07/07 08:50:05;;;;;;;6.50;2.33;;;20.10;66.40;;;19.64;52.22;97819.00;5021741;28;20419;-82
2022/07/07 08:52:31;;;;;;;5.85;2.53;;;20.20;67.50;;;19.74;51.25;97815.31;5041004;28;20433;-80
2022/07/07 08:55:00;;;;;;;5.83;2.67;;;20.30;67.40;;;19.67;51.82;97813.03;5036872;28;20411;-83
2022/07/07 08:57:26;;;;;;;8.68;2.25;;;20.30;67.30;;;19.91;51.18;97802.06;5027717;28;20411;-79
2022/07/07 08:59:56;;;;;;;6.82;2.85;;;20.50;66.70;;;20.02;51.44;97808.81;5028587;28;20419;-79
2022/07/07 09:02:22;;;;;;;5.82;3.08;;;20.50;67.00;;;20.10;51.49;97790.06;5028755;28;20414;-79
2022/07/07 09:04:49;;;;;;;5.57;2.13;;;20.70;67.40;;;20.13;51.75;97782.50;5021209;28;21012;-77
2022/07/07 09:07:15;;;;;;;5.05;2.72;;;20.70;66.80;;;20.30;51.89;97779.94;5023917;28;20551;-80
2022/07/07 09:09:44;;;;;;;7.32;2.67;;;20.80;67.10;;;20.32;52.12;97781.25;5021470;28;20412;-80
2022/07/07 09:12:13;;;;;;;5.15;2.30;;;20.90;67.80;;;20.34;52.07;97789.84;5035454;22;20453;-79
2022/07/07 09:14:42;;;;;;;5.63;2.70;;;20.90;67.20;;;20.36;50.98;97801.09;5029086;28;20411;-77
2022/07/07 09:17:26;;;;;;;7.28;2.60;;;21.00;66.30;;;20.38;51.14;97801.56;5029531;28;20758;-79
2022/07/07 09:20:06;;;;;;;5.63;2.47;;;21.00;66.40;;;20.42;51.88;97807.16;5025221;28;20415;-79
2022/07/07 09:22:44;;;;;;;3.33;1.90;;;20.90;67.40;;;20.41;51.53;97817.09;5027092;28;20449;-80
2022/07/07 09:25:10;;;;;;;6.43;1.77;;;21.00;66.70;;;20.46;52.50;97822.34;5029445;28;20407;-77
2022/07/07 09:27:51;;;;;;;4.47;2.00;;;21.00;68.10;;;20.55;52.40;97827.81;5030744;28;20564;-80
2022/07/07 09:32:49;;;;;;;6.18;1.70;;;21.10;67.00;;;20.52;51.59;97833.03;4978709;28;20435;-79
2022/07/07 09:38:13;;;;;;;3.90;1.45;;;20.80;67.60;;;20.01;53.97;97824.13;4978236;28;20737;-74
2022/07/07 09:40:55;;;;;;;4.17;1.67;;;20.60;69.40;;;19.89;54.82;97825.75;4978042;28;20424;-77
2022/07/07 09:43:22;;;;;;;3.90;1.70;;;20.50;70.80;;;19.74;55.02;97807.25;4978227;28;20412;-76
2022/07/07 09:46:05;;;;;;;2.67;1.65;;;20.40;70.80;;;19.57;55.44;97834.69;4981056;28;20508;-74
2022/07/07 09:48:32;;;;;;;4.57;1.70;;;20.20;71.20;;;19.37;56.79;97837.75;4981716;28;20426;-81
2022/07/07 09:51:18;;;;;;;4.23;1.50;;;20.10;72.50;;;19.30;56.27;97840.81;4980940;28;20415;-73
2022/07/07 09:54:05;;;;;;;4.95;1.63;;;19.90;72.50;;;19.24;56.27;97848.19;4979930;28;20417;-81
2022/07/07 09:56:34;;;;;;;2.05;1.40;;;19.80;72.90;;;19.19;57.00;97855.50;4978497;28;20518;-77
2022/07/07 09:59:03;;;;;;;4.20;1.80;;;19.80;73.10;;;19.26;56.73;97856.72;4981906;28;20480;-76
2022/07/07 10:01:32;;;;;;;2.90;1.60;;;19.80;73.40;;;19.33;56.00;97841.00;4983641;28;20422;-77
2022/07/07 10:04:01;;;;;;;3.00;1.60;;;19.90;72.40;;;19.51;55.96;97843.94;4977589;28;20988;-77
2022/07/07 10:06:31;;;;;;;2.17;1.50;;;20.00;72.60;;;19.57;55.83;97842.75;4960104;28;20901;-78
2022/07/07 10:09:01;;;;;;;2.90;1.42;;;20.20;72.10;;;19.78;55.52;97851.22;4981047;28;20408;-76
2022/07/07 10:11:36;;;;;;;3.47;1.80;;;20.30;72.30;;;19.96;55.22;97853.81;4981821;28;20415;-79
2022/07/07 10:14:11;;;;;;;2.15;1.63;;;20.50;72.00;;;20.16;55.57;97852.56;4981551;28;20420;-76
2022/07/07 10:16:38;;;;;;;3.47;1.60;;;20.70;72.40;;;20.42;53.87;97847.47;4981490;28;20469;-76
2022/07/07 10:19:05;;;;;;;4.20;1.80;;;20.90;70.40;;;20.53;53.87;97859.59;4978745;28;20509;-76
2022/07/07 10:21:32;;;;;;;4.00;1.90;;;21.10;70.40;;;20.68;52.91;97853.84;4965142;28;20418;-77
2022/07/07 10:23:59;;;;;;;4.32;1.73;;;21.20;69.20;;;20.78;51.70;97861.69;4981546;28;20406;-75